createdAt,value
2023-03-05T00:01:29.224Z,38.08
2023-03-05T00:04:21.738Z,39.70
2023-03-05T00:07:14.539Z,37.10
2023-03-05T00:10:08.594Z,38.58
2023-03-05T00:12:59.917Z,39.55
2023-03-05T00:15:51.459Z,36.68
2023-03-05T00:18:43.364Z,39.73
2023-03-05T00:21:37.037Z,38.70
2023-03-05T00:24:28.678Z,38.13
2023-03-05T00:27:20.294Z,40.88
2023-03-05T00:30:20.431Z,38.42
2023-03-05T00:33:14.776Z,38.70
2023-03-05T00:36:09.547Z,39.38
2023-03-05T00:39:00.993Z,39.88
2023-03-05T00:41:52.596Z,39.88
2023-03-05T00:44:43.964Z,39.92
2023-03-05T00:47:35.210Z,39.40
2023-03-05T00:50:26.871Z,40.60
2023-03-05T00:53:18.417Z,39.83
2023-03-05T00:56:10.088Z,40.55
2023-03-05T00:59:01.833Z,37.70
2023-03-05T01:01:53.197Z,39.00
2023-03-05T01:04:47.133Z,42.27
2023-03-05T01:07:43.528Z,38.67
2023-03-05T01:10:36.353Z,35.20
2023-03-05T01:13:28.060Z,37.40
2023-03-05T01:16:19.523Z,37.38
2023-03-05T01:19:11.174Z,35.73
2023-03-05T01:22:03.910Z,35.30
2023-03-05T01:24:55.116Z,34.40
2023-03-05T01:27:47.436Z,33.42
2023-03-05T01:30:39.805Z,31.87
2023-03-05T01:33:31.025Z,30.72
2023-03-05T01:36:24.424Z,31.77
2023-03-05T01:39:15.869Z,30.30
2023-03-05T01:42:08.209Z,31.93
2023-03-05T01:45:05.495Z,33.20
2023-03-05T01:47:57.159Z,31.00
2023-03-05T01:50:48.964Z,30.20
2023-03-05T01:53:41.365Z,31.85
2023-03-05T01:56:33.984Z,35.30
2023-03-05T01:59:26.799Z,30.60
2023-03-05T02:02:19.874Z,29.42
2023-03-05T02:05:14.431Z,34.13
2023-03-05T02:08:08.017Z,30.60
2023-03-05T02:11:00.488Z,30.12
2023-03-05T02:13:52.304Z,24.77
2023-03-05T02:16:45.496Z,29.85
2023-03-05T02:19:51.707Z,23.85
2023-03-05T02:22:43.133Z,30.65
2023-03-05T02:25:34.696Z,28.47
2023-03-05T02:31:14.780Z,31.33
2023-03-05T02:34:06.905Z,31.07
2023-03-05T02:36:58.521Z,27.80
2023-03-05T02:39:50.356Z,25.90
2023-03-05T02:42:42.561Z,27.35
2023-03-05T02:45:36.049Z,24.25
2023-03-05T02:48:28.333Z,30.70
2023-03-05T02:51:20.048Z,24.92
2023-03-05T02:54:12.239Z,27.75
2023-03-05T02:57:04.141Z,25.55
2023-03-05T02:59:56.122Z,26.60
2023-03-05T03:02:47.640Z,26.80
2023-03-05T03:05:39.567Z,26.85
2023-03-05T03:08:30.922Z,25.62
2023-03-05T03:11:22.495Z,25.40
2023-03-05T03:14:14.034Z,25.05
2023-03-05T03:17:37.039Z,28.62
2023-03-05T03:20:29.306Z,28.95
2023-03-05T03:23:21.098Z,27.60
2023-03-05T03:26:12.231Z,27.77
2023-03-05T03:29:05.434Z,27.60
2023-03-05T03:31:56.604Z,31.40
2023-03-05T03:34:48.506Z,28.77
2023-03-05T03:37:42.697Z,26.62
2023-03-05T03:40:37.764Z,28.27
2023-03-05T03:43:31.924Z,28.98
2023-03-05T03:46:23.546Z,30.77
2023-03-05T03:49:17.933Z,32.23
2023-03-05T03:52:10.000Z,29.85
2023-03-05T03:55:02.296Z,31.97
2023-03-05T03:57:53.547Z,31.17
2023-03-05T04:00:44.899Z,32.23
2023-03-05T04:03:36.232Z,31.33
2023-03-05T04:06:27.364Z,32.65
2023-03-05T04:09:19.051Z,29.25
2023-03-05T04:12:34.185Z,34.67
2023-03-05T04:15:26.063Z,30.40
2023-03-05T04:18:17.674Z,28.25
2023-03-05T04:21:09.510Z,30.90
2023-03-05T04:24:02.395Z,31.60
2023-03-05T04:26:53.989Z,33.83
2023-03-05T04:32:28.874Z,36.28
2023-03-05T04:35:22.378Z,32.03
2023-03-05T04:38:16.358Z,30.70
2023-03-05T04:41:07.951Z,28.00
2023-03-05T04:43:59.167Z,28.83
2023-03-05T04:46:50.436Z,30.50
2023-03-05T04:50:00.522Z,30.32
2023-03-05T04:52:51.749Z,29.72
2023-03-05T04:55:46.472Z,30.30
2023-03-05T04:58:38.004Z,31.73
2023-03-05T05:01:29.728Z,30.90
2023-03-05T05:04:20.832Z,31.50
2023-03-05T05:07:12.339Z,32.50
2023-03-05T05:10:03.924Z,33.40
2023-03-05T05:12:55.596Z,32.75
2023-03-05T05:15:47.346Z,31.62
2023-03-05T05:18:38.725Z,33.70
2023-03-05T05:21:30.188Z,31.35
2023-03-05T05:24:21.466Z,31.27
2023-03-05T05:27:12.880Z,35.40
2023-03-05T05:30:05.304Z,34.45
2023-03-05T05:32:56.461Z,31.55
2023-03-05T05:35:48.002Z,36.35
2023-03-05T05:38:39.695Z,38.38
2023-03-05T05:41:31.177Z,33.33
2023-03-05T05:44:22.778Z,36.17
2023-03-05T05:47:14.040Z,35.55
2023-03-05T05:50:24.829Z,34.05
2023-03-05T05:53:13.386Z,37.08
2023-03-05T05:56:07.952Z,35.83
2023-03-05T06:12:43.755Z,35.23
2023-03-05T06:18:23.723Z,36.30
2023-03-05T06:21:17.999Z,31.57
2023-03-05T06:24:13.957Z,34.27
2023-03-05T06:27:22.721Z,36.95
2023-03-05T06:33:07.775Z,34.83
2023-03-05T06:35:59.171Z,32.05
2023-03-05T06:38:53.239Z,40.23
2023-03-05T06:41:44.802Z,38.25
2023-03-05T06:44:36.063Z,37.78
2023-03-05T06:50:19.002Z,37.05
2023-03-05T06:53:10.493Z,34.58
2023-03-05T06:56:04.649Z,34.05
2023-03-05T06:58:56.004Z,36.98
2023-03-05T07:01:48.143Z,36.25
2023-03-05T07:04:40.774Z,37.60
2023-03-05T07:07:32.165Z,34.58
2023-03-05T07:10:23.734Z,35.75
2023-03-05T07:13:15.301Z,37.28
2023-03-05T07:16:10.582Z,39.40
2023-03-05T07:19:07.681Z,35.45
2023-03-05T07:22:14.769Z,36.80
2023-03-05T07:25:07.136Z,35.65
2023-03-05T07:27:58.576Z,39.98
2023-03-05T07:30:59.817Z,37.78
2023-03-05T07:33:51.918Z,37.30
2023-03-05T07:37:06.623Z,38.33
2023-03-05T07:40:04.743Z,33.83
2023-03-05T07:43:01.688Z,34.33
2023-03-05T07:45:58.037Z,37.78
2023-03-05T07:48:49.474Z,35.25
2023-03-05T07:51:47.051Z,37.33
2023-03-05T07:54:40.926Z,36.23
2023-03-05T07:57:32.090Z,39.50
2023-03-05T08:00:23.947Z,36.98
2023-03-05T08:03:27.579Z,35.70
2023-03-05T08:06:29.448Z,37.55
2023-03-05T08:09:34.494Z,36.50
2023-03-05T08:12:28.336Z,36.23
2023-03-05T08:15:20.979Z,36.58
2023-03-05T08:18:31.348Z,34.73
2023-03-05T08:21:27.216Z,39.23
2023-03-05T08:24:22.822Z,38.23
2023-03-05T08:27:13.782Z,36.48
2023-03-05T08:30:06.856Z,42.25
2023-03-05T08:36:12.333Z,36.63
2023-03-05T08:39:03.783Z,36.23
2023-03-05T08:42:13.721Z,37.40
2023-03-05T08:45:10.428Z,35.30
2023-03-05T08:48:02.165Z,37.58
2023-03-05T08:51:15.484Z,41.25
2023-03-05T08:57:32.074Z,42.55
2023-03-05T09:00:41.766Z,40.90
2023-03-05T09:03:34.956Z,40.38
2023-03-05T09:06:29.798Z,42.93
2023-03-05T09:09:21.805Z,41.90
2023-03-05T09:12:13.550Z,37.53
2023-03-05T09:15:07.864Z,39.00
2023-03-05T09:17:59.897Z,41.02
2023-03-05T09:20:54.665Z,41.60
2023-03-05T09:23:48.361Z,35.00
2023-03-05T09:26:44.580Z,40.28
2023-03-05T09:29:36.282Z,39.45
2023-03-05T09:32:30.110Z,40.67
2023-03-05T09:35:25.845Z,40.00
2023-03-05T09:38:19.182Z,35.70
2023-03-05T09:41:16.254Z,35.20
2023-03-05T09:44:19.452Z,37.00
2023-03-05T09:50:18.674Z,37.88
2023-03-05T09:53:24.477Z,37.83
2023-03-05T09:59:05.536Z,40.80
2023-03-05T10:02:13.278Z,39.25
2023-03-05T10:05:08.151Z,36.15
2023-03-05T10:08:02.097Z,39.63
2023-03-05T10:10:55.876Z,40.88
2023-03-05T10:13:48.891Z,37.98
2023-03-05T10:16:55.846Z,38.23
2023-03-05T10:20:08.317Z,37.50
2023-03-05T10:23:09.637Z,38.75
2023-03-05T10:26:21.064Z,39.98
2023-03-05T10:29:21.625Z,40.58
2023-03-05T10:32:23.923Z,43.58
2023-03-05T10:35:43.778Z,40.75
2023-03-05T10:39:05.271Z,37.67
2023-03-05T10:42:02.953Z,38.42
2023-03-05T10:47:51.601Z,40.63
2023-03-05T10:50:46.427Z,40.73
2023-03-05T10:53:40.920Z,43.70
2023-03-05T10:56:32.832Z,38.38
2023-03-05T10:59:24.253Z,38.48
2023-03-05T11:02:16.304Z,41.60
2023-03-05T11:05:11.762Z,39.08
2023-03-05T11:11:21.735Z,38.78
2023-03-05T11:14:29.441Z,41.75
2023-03-05T11:17:34.619Z,37.38
2023-03-05T11:20:36.217Z,38.40
2023-03-05T11:23:27.478Z,43.48
2023-03-05T11:26:24.009Z,38.78
2023-03-05T11:29:23.742Z,40.17
2023-03-05T11:32:23.154Z,38.13
2023-03-05T11:35:32.769Z,36.38
2023-03-05T11:38:26.005Z,39.10
2023-03-05T11:41:18.191Z,34.55
2023-03-05T11:44:14.378Z,38.85
2023-03-05T11:47:09.210Z,35.05
2023-03-05T11:50:04.413Z,35.13
2023-03-05T11:55:46.742Z,33.18
2023-03-05T11:58:40.912Z,35.38
2023-03-05T12:01:35.925Z,32.13
2023-03-05T12:04:28.108Z,37.85
2023-03-05T12:07:23.925Z,33.05
2023-03-05T12:10:20.948Z,33.75
2023-03-05T12:16:08.458Z,33.45
2023-03-05T12:19:06.335Z,29.25
2023-03-05T12:21:58.182Z,34.35
2023-03-05T12:27:40.340Z,32.63
2023-03-05T12:31:01.756Z,33.35
2023-03-05T12:33:53.145Z,30.92
2023-03-05T12:36:45.091Z,33.98
2023-03-05T12:39:54.704Z,31.65
2023-03-05T12:45:38.338Z,36.30
2023-03-05T12:48:48.789Z,35.08
2023-03-05T12:51:42.283Z,35.25
2023-03-05T12:54:38.771Z,33.33
2023-03-05T12:57:31.761Z,33.75
2023-03-05T13:00:29.066Z,31.52
2023-03-05T13:03:24.392Z,27.85
2023-03-05T13:06:27.176Z,28.90
2023-03-05T13:09:22.313Z,38.85
2023-03-05T13:12:15.251Z,33.80
2023-03-05T13:15:11.773Z,29.57
2023-03-05T13:18:05.675Z,32.95
2023-03-05T13:21:15.111Z,33.02
2023-03-05T13:24:08.281Z,32.58
2023-03-05T13:30:30.140Z,34.55
2023-03-05T13:33:27.918Z,34.20
2023-03-05T13:36:26.101Z,33.40
2023-03-05T13:39:27.550Z,26.93
2023-03-05T13:42:21.700Z,32.03
2023-03-05T13:45:26.969Z,35.50
2023-03-05T13:48:21.612Z,33.73
2023-03-05T13:51:21.209Z,24.72
2023-03-05T13:54:16.877Z,34.25
2023-03-05T13:57:11.112Z,33.45
2023-03-05T14:00:03.341Z,24.55
2023-03-05T14:03:06.870Z,26.93
2023-03-05T14:05:58.517Z,27.58
2023-03-05T14:08:54.634Z,34.50
2023-03-05T14:11:55.678Z,31.23
2023-03-05T14:18:20.513Z,29.25
2023-03-05T14:21:16.605Z,28.75
2023-03-05T14:24:18.079Z,32.98
2023-03-05T14:27:13.453Z,25.40
2023-03-05T14:30:06.291Z,31.70
2023-03-05T14:32:59.629Z,28.17
2023-03-05T14:35:54.104Z,31.07
2023-03-05T14:38:46.026Z,34.35
2023-03-05T14:41:41.165Z,31.52
2023-03-05T14:44:32.633Z,30.92
2023-03-05T14:47:24.485Z,22.42
2023-03-05T14:50:21.201Z,33.18
2023-03-05T14:53:17.339Z,29.57
2023-03-05T14:56:15.603Z,30.17
2023-03-05T15:01:57.846Z,35.88
2023-03-05T15:04:49.815Z,29.45
2023-03-05T15:07:41.596Z,37.63
2023-03-05T15:10:32.860Z,33.65
2023-03-05T15:13:24.437Z,26.77
2023-03-05T15:19:33.380Z,30.80
2023-03-05T15:22:25.155Z,33.90
2023-03-05T15:25:27.085Z,32.38
2023-03-05T15:28:23.138Z,31.65
2023-03-05T15:31:26.778Z,31.57
2023-03-05T15:34:16.942Z,32.93
2023-03-05T15:37:28.140Z,31.68
2023-03-05T15:40:22.990Z,30.52
2023-03-05T15:43:14.584Z,26.75
2023-03-05T15:46:07.693Z,30.27
2023-03-05T15:48:59.927Z,33.25
2023-03-05T15:51:54.564Z,27.62
2023-03-05T15:54:50.981Z,29.87
2023-03-05T15:57:45.636Z,27.13
2023-03-05T16:00:38.488Z,27.05
2023-03-05T16:03:30.478Z,29.48
2023-03-05T16:06:25.452Z,34.50
2023-03-05T16:12:06.569Z,27.75
2023-03-05T16:14:57.992Z,29.15
2023-03-05T16:17:52.236Z,32.95
2023-03-05T16:27:52.852Z,30.95
2023-03-05T16:30:46.418Z,32.38
2023-03-05T16:33:44.991Z,23.22
2023-03-05T16:36:38.370Z,34.78
2023-03-05T16:39:30.249Z,24.60
2023-03-05T16:42:22.137Z,27.50
2023-03-05T16:45:17.145Z,26.52
2023-03-05T16:48:09.105Z,22.60
2023-03-05T16:51:05.203Z,28.35
2023-03-05T16:54:06.359Z,21.33
2023-03-05T16:57:01.580Z,27.00
2023-03-05T17:00:01.351Z,34.00
2023-03-05T17:02:52.802Z,24.77
2023-03-05T17:05:44.662Z,35.17
2023-03-05T17:11:18.580Z,34.63
2023-03-05T17:14:10.184Z,30.37
2023-03-05T17:17:02.588Z,34.15
2023-03-05T17:19:53.961Z,35.15
2023-03-05T17:22:48.717Z,21.70
2023-03-05T17:25:40.441Z,29.67
2023-03-05T17:48:14.504Z,24.18
2023-03-05T17:51:06.512Z,28.90
2023-03-05T17:53:58.940Z,32.17
2023-03-05T17:56:50.436Z,34.63
2023-03-05T17:59:44.411Z,34.53
2023-03-05T18:02:43.231Z,35.30
2023-03-05T18:05:34.823Z,33.83
2023-03-05T18:08:26.415Z,32.70
2023-03-05T18:11:25.382Z,27.70
2023-03-05T18:14:17.229Z,34.27
2023-03-05T18:17:09.209Z,25.35
2023-03-05T18:20:02.837Z,33.08
2023-03-05T18:22:53.534Z,32.35
2023-03-05T18:25:45.074Z,33.73
2023-03-05T18:28:36.422Z,33.13
2023-03-05T18:31:28.142Z,35.35
2023-03-05T18:34:21.189Z,32.45
2023-03-05T18:37:12.610Z,29.98
2023-03-05T18:40:05.455Z,32.88
2023-03-05T18:42:56.700Z,28.62
2023-03-05T18:45:49.061Z,33.33
2023-03-05T18:48:58.799Z,33.35
2023-03-05T18:51:50.925Z,32.55
2023-03-05T18:54:42.485Z,36.55
2023-03-05T18:57:34.155Z,37.75
2023-03-05T19:03:12.405Z,25.12
2023-03-05T19:06:05.263Z,35.00
2023-03-05T19:08:58.811Z,33.55
2023-03-05T19:11:50.629Z,32.65
2023-03-05T19:14:43.998Z,35.45
2023-03-05T19:17:36.449Z,34.90
2023-03-05T19:20:28.247Z,31.23
2023-03-05T19:23:19.188Z,32.83
2023-03-05T19:29:03.473Z,31.52
2023-03-05T19:31:56.845Z,32.75
2023-03-05T19:34:50.017Z,33.13
2023-03-05T19:37:41.341Z,36.08
2023-03-05T19:40:32.423Z,35.88
2023-03-05T19:43:23.844Z,32.10
2023-03-05T19:46:15.778Z,34.33
2023-03-05T19:49:07.359Z,31.05
2023-03-05T19:51:58.628Z,28.70
2023-03-05T19:54:51.359Z,31.68
2023-03-05T19:57:42.539Z,32.33
2023-03-05T20:00:33.735Z,31.60
2023-03-05T20:03:28.075Z,28.07
2023-03-05T20:06:20.312Z,29.25
2023-03-05T20:09:11.683Z,30.68
2023-03-05T20:12:04.559Z,29.50
2023-03-05T20:14:55.734Z,30.00
2023-03-05T20:17:47.494Z,31.95
2023-03-05T20:20:39.853Z,31.15
2023-03-05T20:23:31.431Z,34.55
2023-03-05T20:26:26.016Z,36.00
2023-03-05T20:29:19.106Z,39.53
2023-03-05T20:35:01.960Z,37.40
2023-03-05T20:37:55.591Z,40.17
2023-03-05T20:40:46.896Z,37.78
2023-03-05T20:43:41.380Z,34.78
2023-03-05T20:46:35.012Z,33.75
2023-03-05T20:49:28.190Z,35.05
2023-03-05T20:52:19.417Z,35.80
2023-03-05T20:55:12.826Z,35.05
2023-03-05T20:58:04.765Z,36.35
2023-03-05T21:00:56.276Z,35.55
2023-03-05T21:03:47.875Z,38.38
2023-03-05T21:06:39.162Z,34.45
2023-03-05T21:09:31.569Z,34.20
2023-03-05T21:12:22.780Z,38.58
2023-03-05T21:15:16.005Z,35.13
2023-03-05T21:18:08.097Z,33.23
2023-03-05T21:20:59.443Z,33.98
2023-03-05T21:23:50.942Z,32.90
2023-03-05T21:26:44.954Z,37.90
2023-03-05T21:29:36.566Z,34.60
2023-03-05T21:32:27.830Z,39.63
2023-03-05T21:35:22.227Z,37.17
2023-03-05T21:38:14.662Z,32.70
2023-03-05T21:41:07.079Z,38.48
2023-03-05T21:44:00.204Z,33.98
2023-03-05T21:46:51.295Z,37.00
2023-03-05T21:49:42.698Z,35.50
2023-03-05T21:52:33.912Z,33.50
2023-03-05T21:55:27.722Z,36.17
2023-03-05T21:58:19.141Z,33.38
2023-03-05T22:01:12.757Z,33.00
2023-03-05T22:04:04.623Z,36.77
2023-03-05T22:06:56.350Z,37.15
2023-03-05T22:09:48.092Z,33.92
2023-03-05T22:12:44.473Z,33.60
2023-03-05T22:15:38.349Z,35.00
2023-03-05T22:18:34.255Z,36.25
2023-03-05T22:21:43.400Z,34.95
2023-03-05T22:24:36.188Z,35.92
2023-03-05T22:27:27.852Z,33.38
2023-03-05T22:30:19.325Z,38.20
2023-03-05T22:33:11.256Z,34.58
2023-03-05T22:36:09.174Z,37.00
2023-03-05T22:39:19.920Z,37.15
2023-03-05T22:42:12.992Z,37.23
2023-03-05T22:45:04.618Z,36.77
2023-03-05T22:47:56.112Z,32.30
2023-03-05T22:50:47.702Z,36.38
2023-03-05T22:53:40.058Z,32.40
2023-03-05T22:56:31.667Z,38.50
2023-03-05T22:59:23.161Z,35.52
2023-03-05T23:02:14.818Z,35.45
2023-03-05T23:05:11.712Z,33.53
2023-03-05T23:08:03.188Z,38.00
2023-03-05T23:10:54.404Z,37.67
2023-03-05T23:13:45.956Z,35.35
2023-03-05T23:16:37.109Z,35.25
2023-03-05T23:19:28.238Z,35.35
2023-03-05T23:22:20.363Z,35.88
2023-03-05T23:25:13.450Z,32.48
2023-03-05T23:28:08.606Z,32.30
2023-03-05T23:31:01.206Z,32.73
2023-03-05T23:33:52.813Z,35.45
2023-03-05T23:36:44.253Z,33.08
2023-03-05T23:39:35.772Z,37.10
2023-03-05T23:42:27.392Z,35.63
2023-03-05T23:45:20.458Z,42.38
2023-03-05T23:48:12.271Z,34.88
2023-03-05T23:51:03.509Z,33.67
2023-03-05T23:53:54.734Z,32.85
2023-03-05T23:56:46.389Z,34.80
2023-03-05T23:59:38.994Z,33.88
